Terminal Aerodrome Forecast
Issued by NWS Blacksburg, VA

Current Version | Previous Version | Text Only | Print | Product List | Glossary Off
Versions: 1 2 3 4 5 6 7 8 9 10 11 12 13 14 15 16 17 18 19

000
FTUS41 KRNK 240600 RRA
TAFBLF
TAF
KBLF 240600Z 2406/2506 10006KT 5SM RA BKN003 OVC010
     FM241500 10010KT P6SM OVC008
     FM250300 09008KT P6SM OVC003 WS020/11035KT=

USA.gov is the U.S. government's official web portal to all federal, state and local government web resources and services.